Main page


Airports :

Plzeň, Czech Republic

latitude: 49-40-31N, longitude: 13-16-29E, elevation: 362 m

Current weather observation

The report was made 26 minutes ago, at 17:00 UTC
Wind 6 kt from the East
Temperature 5°C
Humidity 56%
Pressure 1004 hPa
Visibility 10 km or more
Few clouds at a height of 3900 ft

METAR: LKLN 241700Z AUTO 09006KT 9999 FEW039 05/M03 Q1004

Time: 18:26 (17:26 UTC)

TAF: missing

Weather observations and forecasts of more than 4000 airports (METAR and TAF reports).

The available stations are represented by yellow and red dots on the map.

Hover mouse over dot to see the name of the station.

Then click to see weather observations and forecasts.

To change the map : click on the green buttons with a black cross to zoom in, on the green button with a dash to zoom out, or on the green arrows for adjacent maps.